createdAt,value
2023-03-01T00:00:08.180Z,196.33
2023-03-01T00:00:39.911Z,195.67
2023-03-01T00:01:20.580Z,195.67
2023-03-01T00:01:52.237Z,196.67
2023-03-01T00:02:24.004Z,197.67
2023-03-01T00:02:56.136Z,198.00
2023-03-01T00:03:28.365Z,197.67
2023-03-01T00:04:00.695Z,197.00
2023-03-01T00:04:32.408Z,196.33
2023-03-01T00:05:05.451Z,196.00
2023-03-01T00:05:37.148Z,196.00
2023-03-01T00:06:09.274Z,195.00
2023-03-01T00:06:42.956Z,194.00
2023-03-01T00:07:14.604Z,193.33
2023-03-01T00:07:46.284Z,191.33
2023-03-01T00:08:17.948Z,190.00
2023-03-01T00:08:50.381Z,188.67
2023-03-01T00:09:22.027Z,187.33
2023-03-01T00:09:53.721Z,187.33
2023-03-01T00:10:25.391Z,187.33
2023-03-01T00:11:07.905Z,187.00
2023-03-01T00:11:39.900Z,187.00
2023-03-01T00:12:12.125Z,187.33
2023-03-01T00:12:43.863Z,188.00
2023-03-01T00:13:15.531Z,188.67
2023-03-01T00:13:50.101Z,189.00
2023-03-01T00:14:21.941Z,190.00
2023-03-01T00:14:53.592Z,190.67
2023-03-01T00:15:25.268Z,191.67
2023-03-01T00:15:57.060Z,193.67
2023-03-01T00:16:43.893Z,195.33
2023-03-01T00:17:15.612Z,197.33
2023-03-01T00:17:47.272Z,198.00
2023-03-01T00:18:18.941Z,199.00
2023-03-01T00:18:51.654Z,201.00
2023-03-01T00:19:23.325Z,202.00
2023-03-01T00:19:54.946Z,203.33
2023-03-01T00:20:26.609Z,205.00
2023-03-01T00:20:58.342Z,206.67
2023-03-01T00:21:30.059Z,207.00
2023-03-01T00:22:01.741Z,206.33
2023-03-01T00:22:33.364Z,206.00
2023-03-01T00:23:05.022Z,205.67
2023-03-01T00:23:37.005Z,205.00
2023-03-01T00:24:09.587Z,205.00
2023-03-01T00:24:41.356Z,205.00
2023-03-01T00:25:13.013Z,205.00
2023-03-01T00:25:45.067Z,204.67
2023-03-01T00:26:18.752Z,204.00
2023-03-01T00:26:54.240Z,203.67
2023-03-01T00:27:25.917Z,203.00
2023-03-01T00:27:57.580Z,203.00
2023-03-01T00:28:29.241Z,202.00
2023-03-01T00:29:01.285Z,201.00
2023-03-01T00:29:33.006Z,199.33
2023-03-01T00:30:06.176Z,198.00
2023-03-01T00:30:38.047Z,197.33
2023-03-01T00:31:21.152Z,196.00
2023-03-01T00:31:53.014Z,194.33
2023-03-01T00:32:24.809Z,193.00
2023-03-01T00:32:56.455Z,185.00
2023-03-01T00:33:28.114Z,172.67
2023-03-01T00:34:02.743Z,166.33
2023-03-01T00:34:34.486Z,164.67
2023-03-01T00:35:06.782Z,166.67
2023-03-01T00:35:38.650Z,171.33
2023-03-01T00:36:12.489Z,174.67
2023-03-01T00:36:44.301Z,176.33
2023-03-01T00:37:15.921Z,177.33
2023-03-01T00:37:47.652Z,178.00
2023-03-01T00:38:19.357Z,178.67
2023-03-01T00:38:51.378Z,179.00
2023-03-01T00:39:23.035Z,179.00
2023-03-01T00:39:54.682Z,180.00
2023-03-01T00:40:28.260Z,179.67
2023-03-01T00:41:05.464Z,179.00
2023-03-01T00:41:37.108Z,178.33
2023-03-01T00:42:08.770Z,177.33
2023-03-01T00:42:40.396Z,176.00
2023-03-01T00:43:12.036Z,176.00
2023-03-01T00:43:45.323Z,174.33
2023-03-01T00:44:16.967Z,171.67
2023-03-01T00:44:48.843Z,168.67
2023-03-01T00:45:20.767Z,166.67
2023-03-01T00:45:52.433Z,167.00
2023-03-01T00:46:26.990Z,166.00
2023-03-01T00:46:58.710Z,166.67
2023-03-01T00:47:30.558Z,167.00
2023-03-01T00:48:02.304Z,165.33
2023-03-01T00:48:35.000Z,163.67
2023-03-01T00:49:06.780Z,162.67
2023-03-01T00:49:38.452Z,162.33
2023-03-01T00:50:11.055Z,162.33
2023-03-01T00:50:42.684Z,162.00
2023-03-01T00:51:26.626Z,161.67
2023-03-01T00:51:58.362Z,162.00
2023-03-01T00:52:29.988Z,161.67
2023-03-01T00:53:01.725Z,160.00
2023-03-01T00:53:34.015Z,160.33
2023-03-01T00:54:05.725Z,160.67
2023-03-01T00:54:37.376Z,160.33
2023-03-01T00:55:09.300Z,160.00
2023-03-01T00:55:40.934Z,158.67
2023-03-01T00:56:14.982Z,158.00
2023-03-01T00:56:46.659Z,157.33
2023-03-01T00:57:18.342Z,156.67
2023-03-01T00:57:50.063Z,156.00
2023-03-01T00:58:21.887Z,155.67
2023-03-01T00:58:53.545Z,155.00
2023-03-01T00:59:25.172Z,155.00
2023-03-01T00:59:57.014Z,155.00
2023-03-01T01:00:29.198Z,155.00
2023-03-01T01:01:01.065Z,155.00
2023-03-01T01:01:32.826Z,156.00
2023-03-01T01:02:04.574Z,156.00
2023-03-01T01:02:36.725Z,156.00
2023-03-01T01:03:08.396Z,156.00
2023-03-01T01:03:40.048Z,156.00
2023-03-01T01:04:14.276Z,156.00
2023-03-01T01:04:46.332Z,156.33
2023-03-01T01:05:21.810Z,157.00
2023-03-01T01:05:54.665Z,157.00
2023-03-01T01:06:48.361Z,157.00
2023-03-01T01:07:21.138Z,157.00
2023-03-01T01:07:52.815Z,156.33
2023-03-01T01:08:24.472Z,156.00
2023-03-01T01:08:56.896Z,155.67
2023-03-01T01:09:28.629Z,155.00
2023-03-01T01:10:00.376Z,154.00
2023-03-01T01:10:32.071Z,153.00
2023-03-01T01:11:03.775Z,152.00
2023-03-01T01:11:37.419Z,152.00
2023-03-01T01:12:09.350Z,152.00
2023-03-01T01:12:40.992Z,152.00
2023-03-01T01:13:13.179Z,152.00
2023-03-01T01:13:47.795Z,152.00
2023-03-01T01:14:20.293Z,153.00
2023-03-01T01:14:51.968Z,153.00
2023-03-01T01:15:23.601Z,153.00
2023-03-01T01:15:55.271Z,153.00
2023-03-01T01:16:29.310Z,153.00
2023-03-01T01:17:01.256Z,153.00
2023-03-01T01:17:32.991Z,153.33
2023-03-01T01:18:04.626Z,154.00
2023-03-01T01:18:36.778Z,154.00
2023-03-01T01:19:08.568Z,154.00
2023-03-01T01:19:40.348Z,154.67
2023-03-01T01:20:13.398Z,155.33
2023-03-01T01:20:44.999Z,156.33
2023-03-01T01:21:19.348Z,157.67
2023-03-01T01:21:51.036Z,158.33
2023-03-01T01:22:22.657Z,159.33
2023-03-01T01:22:54.682Z,160.00
2023-03-01T01:23:26.351Z,160.67
2023-03-01T01:23:58.673Z,161.33
2023-03-01T01:24:30.661Z,163.33
2023-03-01T01:25:02.358Z,164.00
2023-03-01T01:25:37.290Z,164.67
2023-03-01T01:26:31.186Z,165.00
2023-03-01T01:27:03.151Z,165.00
2023-03-01T01:27:34.862Z,165.00
2023-03-01T01:28:06.490Z,165.00
2023-03-01T01:28:38.545Z,164.67
2023-03-01T01:29:11.074Z,164.00
2023-03-01T01:29:43.127Z,164.00
2023-03-01T01:30:14.806Z,164.00
2023-03-01T01:30:46.509Z,164.00
2023-03-01T01:31:19.421Z,163.67
2023-03-01T01:31:51.178Z,163.00
2023-03-01T01:32:25.451Z,162.33
2023-03-01T01:32:58.382Z,162.00
2023-03-01T01:33:30.027Z,162.00
2023-03-01T01:34:03.760Z,162.00
2023-03-01T01:34:35.398Z,161.33
2023-03-01T01:35:07.335Z,161.00
2023-03-01T01:35:38.989Z,161.00
2023-03-01T01:36:11.383Z,161.00
2023-03-01T01:36:43.720Z,161.00
2023-03-01T01:37:15.400Z,160.33
2023-03-01T01:37:47.069Z,160.00
2023-03-01T01:38:18.725Z,160.00
2023-03-01T01:38:50.466Z,159.67
2023-03-01T01:39:23.107Z,159.00
2023-03-01T01:39:54.727Z,158.67
2023-03-01T01:40:26.381Z,157.33
2023-03-01T01:40:58.082Z,155.67
2023-03-01T01:41:30.211Z,155.00
2023-03-01T01:42:02.842Z,154.00
2023-03-01T01:42:34.488Z,153.33
2023-03-01T01:43:08.897Z,152.67
2023-03-01T01:43:45.700Z,151.33
2023-03-01T01:44:24.030Z,150.00
2023-03-01T01:45:26.384Z,150.00
2023-03-01T01:46:02.256Z,150.00
2023-03-01T01:46:39.828Z,150.00
2023-03-01T01:47:20.912Z,150.00
2023-03-01T01:47:55.649Z,149.67
2023-03-01T01:48:41.421Z,149.00
2023-03-01T01:49:25.353Z,149.00
2023-03-01T01:49:58.054Z,148.00
2023-03-01T01:50:38.722Z,148.00
2023-03-01T01:51:23.706Z,148.00
2023-03-01T01:52:02.947Z,148.00
2023-03-01T01:52:39.132Z,147.67
2023-03-01T01:53:16.108Z,147.00
2023-03-01T01:53:54.379Z,146.67
2023-03-01T01:54:34.096Z,147.00
2023-03-01T01:55:12.682Z,147.00
2023-03-01T01:55:48.411Z,147.00
2023-03-01T01:56:22.052Z,147.00
2023-03-01T01:56:59.979Z,147.00
2023-03-01T01:57:57.372Z,147.00
2023-03-01T01:58:31.530Z,148.00
2023-03-01T01:59:03.462Z,148.00
2023-03-01T01:59:35.650Z,149.00
2023-03-01T02:00:12.821Z,149.33
2023-03-01T02:00:44.707Z,150.33
2023-03-01T02:01:16.504Z,151.00
2023-03-01T02:01:48.183Z,151.33
2023-03-01T02:02:20.468Z,151.67
2023-03-01T02:02:58.991Z,151.00
2023-03-01T02:03:38.555Z,151.33
2023-03-01T02:04:10.748Z,151.00
2023-03-01T02:04:42.628Z,151.00
2023-03-01T02:06:09.499Z,150.33
2023-03-01T02:06:52.020Z,149.00
2023-03-01T02:07:25.729Z,148.00
2023-03-01T02:07:59.194Z,148.00
2023-03-01T02:08:34.224Z,147.00
2023-03-01T02:09:12.338Z,146.33
2023-03-01T02:09:48.960Z,145.67
2023-03-01T02:10:23.867Z,144.33
2023-03-01T02:10:57.212Z,143.33
2023-03-01T02:11:31.625Z,142.33
2023-03-01T02:12:05.277Z,141.33
2023-03-01T02:12:38.930Z,140.33
2023-03-01T02:13:11.815Z,139.67
2023-03-01T02:13:44.003Z,140.00
2023-03-01T02:14:17.106Z,139.67
2023-03-01T02:14:48.810Z,139.00
2023-03-01T02:15:20.520Z,137.67
2023-03-01T02:15:52.467Z,137.00
2023-03-01T02:16:24.269Z,136.33
2023-03-01T02:16:56.512Z,134.67
2023-03-01T02:17:28.531Z,133.67
2023-03-01T02:18:00.630Z,133.00
2023-03-01T02:18:32.335Z,133.00
2023-03-01T02:19:06.249Z,133.00
2023-03-01T02:19:40.445Z,133.00
2023-03-01T02:20:33.207Z,133.00
2023-03-01T02:21:07.613Z,132.67
2023-03-01T02:22:07.412Z,132.00
2023-03-01T02:22:40.445Z,131.00
2023-03-01T02:23:12.276Z,131.00
2023-03-01T02:23:44.512Z,131.00
2023-03-01T02:24:37.441Z,131.00
2023-03-01T02:25:09.340Z,130.00
2023-03-01T02:26:05.631Z,130.00
2023-03-01T02:26:47.712Z,130.00
2023-03-01T02:27:27.178Z,130.00
2023-03-01T02:28:16.962Z,141.00
2023-03-01T02:28:48.952Z,177.33
2023-03-01T02:29:21.875Z,182.33
2023-03-01T02:29:53.591Z,177.33
2023-03-01T02:30:26.711Z,173.00
2023-03-01T02:31:17.438Z,168.67
2023-03-01T02:31:52.328Z,163.67
2023-03-01T02:32:26.177Z,161.67
2023-03-01T02:33:05.520Z,160.00
2023-03-01T02:33:40.067Z,158.67
2023-03-01T02:34:19.494Z,157.00
2023-03-01T02:34:56.672Z,153.00
2023-03-01T02:35:28.538Z,150.33
2023-03-01T02:36:02.808Z,149.33
2023-03-01T02:36:54.820Z,147.00
2023-03-01T02:37:28.319Z,143.00
2023-03-01T02:38:02.627Z,141.33
2023-03-01T02:38:34.551Z,140.00
2023-03-01T02:39:15.443Z,138.67
2023-03-01T02:39:51.590Z,136.33
2023-03-01T02:40:24.105Z,136.00
2023-03-01T02:40:57.876Z,135.33
2023-03-01T02:41:36.353Z,135.00
2023-03-01T02:42:08.489Z,134.33
2023-03-01T02:42:59.977Z,130.33
2023-03-01T02:43:33.888Z,116.67
2023-03-01T02:44:06.712Z,112.33
2023-03-01T02:44:38.341Z,109.00
2023-03-01T02:45:11.729Z,109.33
2023-03-01T02:45:53.864Z,113.00
2023-03-01T02:46:27.179Z,114.67
2023-03-01T02:47:04.176Z,114.67
2023-03-01T02:47:35.814Z,112.00
2023-03-01T02:48:07.582Z,110.00
2023-03-01T02:48:48.651Z,107.67
2023-03-01T02:49:29.908Z,104.00
2023-03-01T02:50:01.580Z,94.33
2023-03-01T02:51:27.716Z,91.33
2023-03-01T02:52:09.716Z,92.00
2023-03-01T02:53:02.422Z,89.67
2023-03-01T02:53:52.036Z,89.67
2023-03-01T02:54:36.421Z,89.67
2023-03-01T02:55:08.445Z,88.67
2023-03-01T02:55:40.980Z,89.67
2023-03-01T02:56:14.020Z,90.00
2023-03-01T02:56:49.865Z,90.67
2023-03-01T02:57:24.211Z,91.00
2023-03-01T02:57:57.964Z,92.00
2023-03-01T02:58:29.645Z,92.00
2023-03-01T02:59:01.783Z,93.00
2023-03-01T02:59:40.413Z,93.00
2023-03-01T03:00:23.971Z,94.00
2023-03-01T03:00:57.711Z,94.33
2023-03-01T03:01:38.379Z,95.00
2023-03-01T03:02:37.211Z,95.00
2023-03-01T03:03:09.131Z,95.00
2023-03-01T03:03:40.841Z,96.00
2023-03-01T03:04:19.094Z,96.00
2023-03-01T03:04:50.749Z,96.00
2023-03-01T03:05:25.340Z,96.00
2023-03-01T03:05:57.002Z,96.33
2023-03-01T03:06:28.777Z,96.00
2023-03-01T03:07:00.539Z,96.00
2023-03-01T03:07:32.184Z,97.00
2023-03-01T03:08:04.721Z,97.00
2023-03-01T03:08:36.577Z,98.00
2023-03-01T03:09:09.059Z,98.67
2023-03-01T03:09:40.716Z,99.33
2023-03-01T03:10:16.587Z,100.33
2023-03-01T03:10:48.214Z,101.67
2023-03-01T03:11:19.902Z,102.67
2023-03-01T03:11:51.536Z,103.00
2023-03-01T03:12:23.178Z,104.00
2023-03-01T03:13:15.509Z,104.00
2023-03-01T03:13:49.150Z,104.00
2023-03-01T03:14:20.979Z,104.67
2023-03-01T03:14:52.649Z,105.00
2023-03-01T03:15:25.905Z,105.00
2023-03-01T03:15:58.240Z,105.00
2023-03-01T03:16:31.013Z,105.00
2023-03-01T03:17:08.053Z,105.00
2023-03-01T03:17:44.123Z,105.00
2023-03-01T03:18:18.652Z,105.00
2023-03-01T03:18:50.588Z,105.00
2023-03-01T03:19:22.330Z,105.00
2023-03-01T03:19:54.079Z,104.67
2023-03-01T03:20:28.350Z,104.00
2023-03-01T03:21:00.064Z,104.00
2023-03-01T03:21:33.856Z,104.00
2023-03-01T03:22:05.500Z,103.67
2023-03-01T03:22:37.306Z,103.00
2023-03-01T03:23:09.029Z,103.00
2023-03-01T03:23:40.716Z,103.00
2023-03-01T03:24:12.449Z,103.00
2023-03-01T03:24:44.073Z,103.00
2023-03-01T03:25:17.488Z,103.00
2023-03-01T03:25:52.992Z,103.00
2023-03-01T03:26:25.070Z,103.00
2023-03-01T03:26:56.710Z,103.00
2023-03-01T03:27:29.467Z,102.33
2023-03-01T03:28:01.159Z,102.00
2023-03-01T03:28:34.579Z,102.00
2023-03-01T03:29:06.289Z,102.00
2023-03-01T03:29:37.946Z,102.00
2023-03-01T03:30:12.899Z,102.00
2023-03-01T03:30:45.065Z,102.00
2023-03-01T03:31:16.873Z,102.00
2023-03-01T03:31:48.680Z,102.00
2023-03-01T03:32:20.496Z,102.00
2023-03-01T03:32:54.876Z,103.00
2023-03-01T03:33:26.524Z,103.00
2023-03-01T03:33:59.968Z,103.00
2023-03-01T03:34:31.748Z,103.00
2023-03-01T03:35:10.357Z,103.00
2023-03-01T03:35:45.477Z,103.00
2023-03-01T03:36:22.650Z,102.67
2023-03-01T03:37:00.360Z,102.00
2023-03-01T03:37:50.576Z,101.67
2023-03-01T03:38:22.866Z,100.33
2023-03-01T03:38:54.608Z,99.67
2023-03-01T03:39:28.169Z,98.33
2023-03-01T03:39:59.991Z,96.67
2023-03-01T03:40:33.320Z,96.00
2023-03-01T03:41:08.335Z,95.00
2023-03-01T03:41:40.049Z,95.00
2023-03-01T03:42:12.005Z,95.00
2023-03-01T03:42:43.862Z,95.00
2023-03-01T03:43:22.303Z,95.00
2023-03-01T03:43:53.944Z,95.00
2023-03-01T03:44:25.605Z,96.00
2023-03-01T03:44:57.275Z,96.00
2023-03-01T03:45:28.905Z,96.00
2023-03-01T03:46:01.609Z,96.00
2023-03-01T03:46:33.790Z,96.00
2023-03-01T03:47:05.632Z,96.00
2023-03-01T03:47:37.335Z,97.00
2023-03-01T03:48:11.029Z,97.00
2023-03-01T03:48:45.297Z,97.67
2023-03-01T03:49:17.029Z,98.00
2023-03-01T03:49:48.675Z,98.67
2023-03-01T03:50:20.357Z,99.00
2023-03-01T03:50:54.836Z,99.00
2023-03-01T03:51:26.452Z,99.00
2023-03-01T03:51:58.218Z,99.00
2023-03-01T03:52:29.875Z,99.00
2023-03-01T03:53:02.961Z,99.00
2023-03-01T03:53:34.790Z,99.00
2023-03-01T03:54:06.485Z,99.00
2023-03-01T03:54:38.158Z,99.00
2023-03-01T03:55:12.150Z,99.00
2023-03-01T03:55:45.410Z,99.00
2023-03-01T03:56:17.097Z,99.00
2023-03-01T03:56:48.711Z,99.00
2023-03-01T03:57:20.338Z,99.00
2023-03-01T03:57:55.111Z,99.33
2023-03-01T03:58:27.384Z,100.00
2023-03-01T03:58:59.092Z,100.00
2023-03-01T03:59:30.743Z,100.00
2023-03-01T04:00:05.763Z,99.67
2023-03-01T04:00:44.187Z,99.00
2023-03-01T04:01:15.844Z,98.67
2023-03-01T04:01:47.625Z,98.00
2023-03-01T04:02:23.212Z,98.00
2023-03-01T04:02:57.811Z,98.00
2023-03-01T04:03:31.252Z,98.00
2023-03-01T04:04:05.199Z,98.00
2023-03-01T04:04:37.031Z,98.00
2023-03-01T04:05:11.137Z,98.00
2023-03-01T04:05:43.162Z,98.00
2023-03-01T04:06:15.667Z,98.33
2023-03-01T04:06:47.326Z,99.00
2023-03-01T04:07:18.993Z,99.00
2023-03-01T04:08:02.094Z,99.00
2023-03-01T04:08:34.380Z,99.00
2023-03-01T04:09:06.028Z,98.00
2023-03-01T04:09:37.689Z,98.00
2023-03-01T04:10:17.996Z,98.00
2023-03-01T04:10:53.195Z,97.67
2023-03-01T04:11:27.677Z,97.00
2023-03-01T04:11:59.329Z,97.00
2023-03-01T04:12:31.099Z,97.00
2023-03-01T04:13:03.020Z,97.00
2023-03-01T04:13:34.650Z,96.33
2023-03-01T04:14:06.315Z,95.33
2023-03-01T04:14:38.070Z,95.00
2023-03-01T04:15:16.235Z,95.33
2023-03-01T04:15:50.234Z,99.67
2023-03-01T04:16:22.161Z,110.00
2023-03-01T04:16:53.856Z,117.33
2023-03-01T04:17:25.632Z,118.33
2023-03-01T04:17:57.352Z,116.00
2023-03-01T04:18:29.011Z,113.67
2023-03-01T04:19:01.534Z,112.67
2023-03-01T04:19:37.072Z,112.00
2023-03-01T04:20:12.110Z,111.00
2023-03-01T04:20:44.188Z,111.00
2023-03-01T04:21:16.289Z,110.00
2023-03-01T04:21:47.924Z,109.67
2023-03-01T04:22:19.765Z,108.67
2023-03-01T04:22:59.433Z,107.67
2023-03-01T04:23:31.175Z,106.00
2023-03-01T04:24:04.691Z,105.00
2023-03-01T04:24:36.968Z,104.00
2023-03-01T04:25:08.960Z,103.00
2023-03-01T04:25:43.119Z,102.00
2023-03-01T04:26:14.848Z,102.00
2023-03-01T04:26:46.510Z,102.00
2023-03-01T04:27:18.187Z,103.67
2023-03-01T04:27:49.896Z,105.67
2023-03-01T04:28:36.912Z,106.00
2023-03-01T04:29:08.563Z,106.33
2023-03-01T04:29:40.193Z,107.00
2023-03-01T04:30:12.266Z,107.00
2023-03-01T04:30:43.969Z,107.00
2023-03-01T04:31:19.420Z,107.00
2023-03-01T04:31:51.331Z,107.67
2023-03-01T04:32:23.063Z,108.67
2023-03-01T04:32:54.773Z,110.33
2023-03-01T04:33:26.822Z,111.67
2023-03-01T04:33:58.515Z,113.33
2023-03-01T04:34:31.054Z,115.67
2023-03-01T04:35:02.786Z,119.33
2023-03-01T04:35:36.186Z,124.33
2023-03-01T04:36:09.846Z,128.33
2023-03-01T04:36:41.617Z,131.00
2023-03-01T04:37:13.315Z,132.33
2023-03-01T04:37:46.079Z,135.00
2023-03-01T04:38:19.328Z,137.00
2023-03-01T04:38:51.301Z,135.67
2023-03-01T04:39:22.971Z,133.33
2023-03-01T04:39:54.697Z,132.33
2023-03-01T04:40:26.483Z,131.67
2023-03-01T04:40:58.095Z,132.00
2023-03-01T04:41:29.770Z,131.67
2023-03-01T04:42:01.583Z,131.33
2023-03-01T04:42:33.750Z,130.33
2023-03-01T04:43:05.596Z,129.67
2023-03-01T04:43:38.083Z,129.00
2023-03-01T04:44:10.486Z,128.00
2023-03-01T04:44:42.136Z,128.00
2023-03-01T04:45:14.140Z,129.00
2023-03-01T04:45:46.113Z,128.67
2023-03-01T04:46:20.069Z,128.00
2023-03-01T04:46:51.777Z,127.00
2023-03-01T04:47:23.420Z,124.33
2023-03-01T04:47:55.071Z,120.67
2023-03-01T04:48:26.717Z,116.00
2023-03-01T04:48:58.558Z,109.00
2023-03-01T04:49:30.485Z,103.67
2023-03-01T04:50:02.142Z,101.00
2023-03-01T04:50:34.142Z,100.00
2023-03-01T04:51:06.726Z,100.00
2023-03-01T04:51:38.734Z,101.67
2023-03-01T04:52:10.407Z,102.00
2023-03-01T04:52:42.473Z,103.00
2023-03-01T04:53:14.120Z,103.00
2023-03-01T04:53:45.822Z,104.33
2023-03-01T04:54:17.450Z,109.00
2023-03-01T04:54:49.118Z,123.33
2023-03-01T04:55:20.812Z,135.00
2023-03-01T04:55:52.494Z,150.67
2023-03-01T04:56:24.253Z,179.33
2023-03-01T04:56:56.055Z,190.33
2023-03-01T04:57:27.710Z,192.33
2023-03-01T04:57:59.792Z,193.00
2023-03-01T04:58:31.660Z,191.67
2023-03-01T04:59:06.719Z,191.33
2023-03-01T04:59:38.355Z,186.33
2023-03-01T05:00:22.975Z,177.33
2023-03-01T05:00:55.549Z,171.67
2023-03-01T05:01:27.213Z,167.33
2023-03-01T05:01:58.884Z,163.33
2023-03-01T05:02:30.567Z,162.00
2023-03-01T05:03:02.358Z,161.00
2023-03-01T05:03:33.991Z,160.00
2023-03-01T05:04:06.521Z,159.00
2023-03-01T05:04:38.197Z,157.67
2023-03-01T05:05:09.889Z,155.33
2023-03-01T05:05:41.768Z,153.67
2023-03-01T05:06:14.499Z,152.33
2023-03-01T05:06:46.116Z,150.67
2023-03-01T05:07:20.309Z,150.00
2023-03-01T05:07:59.947Z,149.00
2023-03-01T05:08:35.215Z,147.00
2023-03-01T05:09:06.931Z,142.00
2023-03-01T05:09:39.418Z,137.00
2023-03-01T05:10:11.526Z,133.33
2023-03-01T05:10:43.184Z,130.67
2023-03-01T05:11:14.952Z,127.67
2023-03-01T05:11:46.782Z,125.67
2023-03-01T05:12:18.429Z,124.00
2023-03-01T05:12:50.077Z,124.00
2023-03-01T05:13:22.440Z,123.67
2023-03-01T05:13:55.999Z,123.00
2023-03-01T05:14:27.800Z,123.33
2023-03-01T05:14:59.503Z,124.00
2023-03-01T05:15:32.490Z,124.67
2023-03-01T05:16:05.669Z,125.67
2023-03-01T05:16:38.267Z,126.00
2023-03-01T05:17:10.065Z,127.00
2023-03-01T05:17:41.745Z,127.00
2023-03-01T05:18:13.434Z,127.00
2023-03-01T05:18:45.114Z,127.00
2023-03-01T05:19:16.818Z,127.00
2023-03-01T05:19:48.483Z,127.33
2023-03-01T05:20:23.857Z,127.00
2023-03-01T05:20:59.465Z,125.67
2023-03-01T05:21:31.242Z,124.67
2023-03-01T05:22:02.979Z,123.67
2023-03-01T05:22:34.723Z,123.00
2023-03-01T05:23:06.565Z,121.67
2023-03-01T05:23:38.816Z,119.00
2023-03-01T05:24:12.728Z,116.33
2023-03-01T05:24:44.380Z,112.00
2023-03-01T05:25:16.605Z,108.33
2023-03-01T05:25:48.452Z,108.00
2023-03-01T05:26:28.289Z,109.67
2023-03-01T05:27:11.109Z,111.00
2023-03-01T05:27:42.745Z,112.00
2023-03-01T05:28:15.111Z,113.00
2023-03-01T05:28:46.905Z,113.67
2023-03-01T05:29:25.884Z,114.33
2023-03-01T05:29:57.740Z,115.00
2023-03-01T05:30:29.408Z,115.33
2023-03-01T05:31:01.388Z,116.00
2023-03-01T05:31:33.272Z,117.33
2023-03-01T05:32:05.307Z,120.00
2023-03-01T05:32:36.924Z,122.00
2023-03-01T05:33:14.393Z,122.00
2023-03-01T05:33:46.500Z,122.00
2023-03-01T05:34:18.133Z,121.67
2023-03-01T05:34:49.768Z,121.00
2023-03-01T05:35:21.487Z,120.67
2023-03-01T05:35:54.523Z,120.00
2023-03-01T05:36:26.209Z,119.00
2023-03-01T05:36:58.009Z,119.00
2023-03-01T05:37:29.871Z,118.33
2023-03-01T05:38:01.655Z,118.00
2023-03-01T05:38:33.368Z,118.00
2023-03-01T05:39:05.795Z,118.00
2023-03-01T05:39:37.527Z,117.33
2023-03-01T05:40:16.515Z,116.33
2023-03-01T05:40:49.441Z,115.00
2023-03-01T05:41:21.115Z,113.33
2023-03-01T05:41:58.381Z,110.00
2023-03-01T05:42:30.045Z,105.00
2023-03-01T05:43:01.775Z,104.00
2023-03-01T05:43:36.522Z,102.67
2023-03-01T05:44:08.295Z,103.00
2023-03-01T05:44:39.983Z,103.67
2023-03-01T05:45:13.445Z,100.67
2023-03-01T05:45:45.183Z,97.67
2023-03-01T05:46:16.847Z,96.00
2023-03-01T05:46:48.592Z,95.33
2023-03-01T05:47:22.227Z,96.33
2023-03-01T05:47:56.031Z,97.00
2023-03-01T05:48:27.736Z,98.00
2023-03-01T05:48:59.424Z,99.00
2023-03-01T05:49:32.490Z,256.67
2023-03-01T05:50:04.379Z,423.00
2023-03-01T05:50:41.997Z,402.00
2023-03-01T05:51:13.654Z,295.67
2023-03-01T05:51:49.896Z,220.67
2023-03-01T05:52:21.539Z,184.00
2023-03-01T05:53:01.850Z,170.33
2023-03-01T05:53:33.563Z,140.67
2023-03-01T05:54:06.911Z,130.33
2023-03-01T05:54:38.871Z,124.00
2023-03-01T05:55:10.940Z,118.67
2023-03-01T05:55:44.037Z,117.67
2023-03-01T05:56:15.695Z,114.00
2023-03-01T05:56:47.934Z,109.33
2023-03-01T05:57:19.559Z,108.33
2023-03-01T05:57:52.151Z,105.67
2023-03-01T05:58:23.861Z,105.33
2023-03-01T05:58:55.790Z,107.00
2023-03-01T05:59:27.469Z,105.00
2023-03-01T05:59:59.111Z,104.00
2023-03-01T06:00:32.120Z,103.67
2023-03-01T06:01:03.829Z,103.33
2023-03-01T06:01:36.464Z,102.33
2023-03-01T06:02:08.113Z,101.00
2023-03-01T06:02:40.948Z,100.00
2023-03-01T06:03:14.156Z,100.33
2023-03-01T06:03:45.799Z,101.67
2023-03-01T06:04:17.472Z,99.67
2023-03-01T06:04:49.224Z,95.67
2023-03-01T06:05:21.284Z,94.00
2023-03-01T06:05:59.144Z,93.00
2023-03-01T06:06:34.510Z,89.67
2023-03-01T06:07:06.437Z,91.33
2023-03-01T06:07:38.414Z,94.33
2023-03-01T06:08:12.244Z,96.67
2023-03-01T06:08:43.919Z,97.00
2023-03-01T06:09:15.622Z,95.33
2023-03-01T06:09:47.279Z,93.67
2023-03-01T06:10:20.933Z,94.00
2023-03-01T06:10:52.544Z,95.00
2023-03-01T06:11:24.293Z,95.00
2023-03-01T06:11:55.918Z,95.67
2023-03-01T06:12:27.636Z,96.00
2023-03-01T06:12:59.907Z,97.00
2023-03-01T06:13:31.647Z,97.00
2023-03-01T06:14:03.952Z,97.33
2023-03-01T06:14:35.653Z,98.00
2023-03-01T06:15:10.745Z,98.33
2023-03-01T06:15:42.463Z,99.00
2023-03-01T06:16:15.144Z,99.00
2023-03-01T06:16:46.825Z,99.00
2023-03-01T06:17:18.474Z,99.67
2023-03-01T06:17:51.256Z,100.00
2023-03-01T06:18:22.902Z,100.00
2023-03-01T06:18:54.574Z,101.33
2023-03-01T06:19:26.187Z,102.33
2023-03-01T06:19:57.980Z,103.67
2023-03-01T06:20:30.469Z,105.33
2023-03-01T06:21:02.352Z,106.00
2023-03-01T06:21:34.007Z,107.00
2023-03-01T06:22:05.661Z,107.00
2023-03-01T06:22:37.452Z,107.00
2023-03-01T06:23:09.850Z,107.00
2023-03-01T06:23:42.351Z,107.00
2023-03-01T06:24:14.044Z,107.00
2023-03-01T06:24:45.716Z,106.33
2023-03-01T06:25:20.331Z,105.67
2023-03-01T06:25:52.108Z,104.33
2023-03-01T06:26:24.339Z,103.67
2023-03-01T06:26:56.707Z,101.67
2023-03-01T06:27:28.556Z,99.33
2023-03-01T06:28:00.218Z,99.00
2023-03-01T06:28:31.870Z,98.33
2023-03-01T06:29:03.521Z,98.00
2023-03-01T06:29:35.288Z,97.33
2023-03-01T06:30:08.963Z,97.00
2023-03-01T06:30:40.610Z,96.33
2023-03-01T06:31:12.594Z,95.67
2023-03-01T06:31:44.293Z,94.33
2023-03-01T06:32:16.064Z,93.33
2023-03-01T06:32:48.876Z,92.33
2023-03-01T06:33:25.302Z,92.00
2023-03-01T06:33:56.951Z,92.00
2023-03-01T06:34:28.855Z,91.67
2023-03-01T06:35:00.557Z,91.00
2023-03-01T06:35:32.988Z,92.00
2023-03-01T06:36:05.011Z,107.33
2023-03-01T06:36:36.658Z,243.00
2023-03-01T06:37:09.180Z,202.33
2023-03-01T06:37:41.907Z,151.67
2023-03-01T06:38:15.933Z,133.33
2023-03-01T06:38:47.786Z,129.67
2023-03-01T06:39:19.456Z,129.00
2023-03-01T06:39:51.205Z,127.67
2023-03-01T06:40:23.097Z,126.33
2023-03-01T06:40:57.478Z,124.00
2023-03-01T06:41:29.129Z,122.00
2023-03-01T06:42:01.200Z,119.33
2023-03-01T06:42:32.856Z,117.33
2023-03-01T06:43:04.587Z,116.33
2023-03-01T06:43:36.601Z,116.00
2023-03-01T06:44:08.281Z,116.00
2023-03-01T06:44:39.980Z,116.00
2023-03-01T06:45:12.528Z,116.00
2023-03-01T06:45:44.164Z,117.33
2023-03-01T06:46:15.939Z,121.67
2023-03-01T06:46:47.935Z,121.67
2023-03-01T06:47:19.594Z,121.00
2023-03-01T06:47:51.757Z,120.33
2023-03-01T06:48:23.375Z,118.33
2023-03-01T06:48:55.030Z,118.00
2023-03-01T06:49:26.858Z,118.00
2023-03-01T06:49:58.516Z,117.33
2023-03-01T06:50:30.280Z,115.00
2023-03-01T06:51:02.589Z,111.33
2023-03-01T06:51:34.314Z,106.00
2023-03-01T06:52:05.944Z,100.00
2023-03-01T06:52:37.646Z,97.33
2023-03-01T06:53:09.335Z,98.00
2023-03-01T06:53:41.006Z,98.33
2023-03-01T06:54:13.185Z,99.00
2023-03-01T06:54:44.849Z,100.00
2023-03-01T06:55:16.487Z,100.00
2023-03-01T06:55:48.159Z,101.00
2023-03-01T06:56:19.778Z,101.00
2023-03-01T06:56:51.693Z,101.00
2023-03-01T06:57:23.388Z,102.00
2023-03-01T06:57:57.259Z,102.33
2023-03-01T06:58:29.267Z,103.67
2023-03-01T06:59:00.986Z,104.00
2023-03-01T06:59:32.650Z,102.67
2023-03-01T07:00:05.417Z,97.33
2023-03-01T07:00:37.074Z,95.33
2023-03-01T07:01:10.353Z,94.00
2023-03-01T07:01:42.029Z,91.00
2023-03-01T07:02:15.116Z,88.67